DTTF

Gafsa Ksar International Airport

Gafsa, Tunisia
METAR DTTF 212200Z 00000KT CAVOK 19/09 Q1018 NOSIG
Observed Flight Rules
Apr-21 @ 22:00 UTC (an hour ago) Visual Flight Rules
Visibility Clouds
10,000+ meters
  • Clear skies
Temperatures Readings
Current 19°C / 66°F
Dewpoint 9°C / 48°F
Humidity 52%
Altimeter 30.06" Hg
Pressure 1018 hPa
Elevation 314
METAR DTTF 212200Z 00000KT CAVOK 19/09 Q1018 NOSIG
Observed Flight Rules
Apr-21 @ 22:00 UTC
(an hour ago)
VFR
Clouds
  • Clear skies
Temperature Dewpoint
19°C / 66°F 9°C / 48°F
Humidity Altimeter Pressure
52% 30.06" Hg 1018 hPa